createdAt,value
2023-01-13T06:33:25.915Z,20.38
2023-01-13T06:35:57.342Z,21.53
2023-01-13T06:38:27.898Z,20.25
2023-01-13T06:40:55.122Z,22.13
2023-01-13T06:43:22.489Z,23.45
2023-01-13T06:45:52.394Z,23.35
2023-01-13T06:48:23.390Z,21.55
2023-01-13T06:50:50.251Z,22.08
2023-01-13T06:53:17.128Z,21.10
2023-01-13T06:55:44.089Z,19.75
2023-01-13T06:58:11.229Z,19.45
2023-01-13T07:00:38.469Z,19.42
2023-01-13T07:03:07.301Z,19.02
2023-01-13T07:05:36.078Z,20.17
2023-01-13T07:08:02.932Z,19.70
2023-01-13T07:10:30.504Z,20.50
2023-01-13T07:13:00.484Z,20.95
2023-01-13T07:15:27.474Z,22.35
2023-01-13T07:17:54.287Z,20.70
2023-01-13T07:20:21.229Z,19.10
2023-01-13T07:22:53.784Z,22.15
2023-01-13T07:25:20.757Z,22.42
2023-01-13T07:27:47.610Z,21.90
2023-01-13T07:30:14.950Z,22.80
2023-01-13T07:32:41.769Z,22.02
2023-01-13T07:35:08.726Z,22.08
2023-01-13T07:37:38.364Z,21.83
2023-01-13T07:42:34.424Z,22.35
2023-01-13T07:45:01.212Z,23.38
2023-01-13T07:47:28.170Z,22.02
2023-01-13T07:49:55.208Z,21.45
2023-01-13T07:52:22.277Z,22.83
2023-01-13T07:54:49.131Z,22.70
2023-01-13T07:57:17.704Z,22.95
2023-01-13T08:00:02.460Z,23.08
2023-01-13T08:02:31.888Z,22.08
2023-01-13T08:04:58.931Z,21.17
2023-01-13T08:07:28.019Z,20.15
2023-01-13T08:10:01.818Z,21.45
2023-01-13T08:12:34.104Z,21.35
2023-01-13T08:15:07.189Z,20.83
2023-01-13T08:17:34.228Z,19.25
2023-01-13T08:20:01.599Z,20.38
2023-01-13T08:22:42.776Z,18.92
2023-01-13T08:25:13.020Z,17.38
2023-01-13T08:34:22.109Z,14.82
2023-01-13T08:43:13.707Z,13.23
2023-01-13T08:46:12.488Z,13.88
2023-01-13T08:48:57.425Z,13.80
2023-01-13T08:51:38.055Z,13.95
2023-01-13T08:57:28.649Z,13.38
2023-01-13T09:00:09.231Z,13.43
2023-01-13T09:02:38.883Z,13.73
2023-01-13T09:08:05.007Z,13.35
2023-01-13T09:10:49.681Z,13.20
2023-01-13T09:15:55.324Z,15.07
2023-01-13T09:19:02.036Z,14.77
2023-01-13T09:30:10.253Z,10.32
2023-01-13T09:32:49.589Z,11.50
2023-01-13T09:35:18.701Z,12.60
2023-01-13T09:41:06.567Z,11.30
2023-01-13T09:43:39.276Z,12.00
2023-01-13T09:46:16.329Z,13.38
2023-01-13T09:48:43.331Z,13.27
2023-01-13T09:51:18.894Z,13.80
2023-01-13T09:53:53.541Z,13.65
2023-01-13T09:56:20.519Z,14.57
2023-01-13T09:58:48.418Z,14.40
2023-01-13T10:01:28.250Z,15.10
2023-01-13T10:03:55.556Z,15.88
2023-01-13T10:06:29.767Z,15.45
2023-01-13T10:08:58.458Z,15.18
2023-01-13T10:11:32.368Z,14.73
2023-01-13T10:14:02.380Z,16.08
2023-01-13T10:16:37.461Z,16.17
2023-01-13T10:19:12.451Z,16.30
2023-01-13T10:22:09.498Z,15.65
2023-01-13T10:24:55.443Z,14.23
2023-01-13T10:27:30.258Z,11.35
2023-01-13T10:30:19.567Z,10.18
2023-01-13T10:32:50.699Z,11.57
2023-01-13T10:38:41.471Z,11.38
2023-01-13T10:41:18.659Z,9.90
2023-01-13T10:43:57.382Z,9.85
2023-01-13T10:46:53.172Z,9.00
2023-01-13T10:49:53.559Z,9.27
2023-01-13T10:52:38.508Z,9.65
2023-01-13T10:55:36.002Z,11.68
2023-01-13T10:58:13.379Z,11.07
2023-01-13T11:00:40.738Z,10.75
2023-01-13T11:03:15.865Z,10.85
2023-01-13T11:05:53.747Z,10.18
2023-01-13T11:08:23.292Z,9.95
2023-01-13T11:10:53.838Z,10.55
2023-01-13T11:13:28.115Z,11.18
2023-01-13T11:16:00.900Z,11.02
2023-01-13T11:18:38.059Z,11.13
2023-01-13T11:21:12.093Z,10.23
2023-01-13T11:24:07.940Z,9.65
2023-01-13T11:26:41.438Z,10.15
2023-01-13T11:29:15.031Z,8.65
2023-01-13T11:31:47.514Z,9.38
2023-01-13T11:34:25.292Z,9.68
2023-01-13T11:37:02.059Z,8.95
2023-01-13T11:39:49.632Z,9.15
2023-01-13T11:42:23.905Z,9.50
2023-01-13T11:45:03.783Z,8.90
2023-01-13T11:47:32.598Z,9.35
2023-01-13T11:50:01.758Z,8.57
2023-01-13T11:52:47.516Z,9.90
2023-01-13T11:55:26.077Z,9.35
2023-01-13T11:58:12.050Z,9.27
2023-01-13T12:01:07.468Z,9.07
2023-01-13T12:03:42.071Z,8.63
2023-01-13T12:06:19.914Z,8.88
2023-01-13T12:09:08.330Z,8.35
2023-01-13T12:11:46.983Z,8.30
2023-01-13T12:14:29.262Z,8.35
2023-01-13T12:16:56.412Z,8.25
2023-01-13T12:19:25.808Z,8.73
2023-01-13T12:22:07.915Z,8.70
2023-01-13T12:24:43.162Z,8.75
2023-01-13T12:27:15.841Z,9.48
2023-01-13T12:29:45.074Z,9.45
2023-01-13T12:32:16.579Z,9.70
2023-01-13T12:34:53.521Z,9.18
2023-01-13T12:37:29.199Z,9.70
2023-01-13T12:40:19.304Z,9.10
2023-01-13T12:42:52.706Z,9.13
2023-01-13T12:45:26.199Z,9.00
2023-01-13T12:47:53.488Z,9.35
2023-01-13T12:50:41.717Z,9.18
2023-01-13T12:53:31.503Z,9.40
2023-01-13T12:56:30.175Z,9.52
2023-01-13T12:59:42.069Z,8.63
2023-01-13T13:02:35.936Z,9.80
2023-01-13T13:05:38.635Z,9.55
2023-01-13T13:08:14.581Z,9.90
2023-01-13T13:10:47.816Z,9.70
2023-01-13T13:13:41.144Z,9.40
2023-01-13T13:16:57.143Z,9.45
2023-01-13T13:19:47.195Z,9.50
2023-01-13T13:22:36.699Z,9.20
2023-01-13T13:28:07.861Z,8.93
2023-01-13T13:30:37.383Z,8.90
2023-01-13T13:33:20.804Z,9.73
2023-01-13T13:36:09.905Z,11.18
2023-01-13T13:38:58.431Z,12.20
2023-01-13T13:41:26.504Z,11.63
2023-01-13T13:43:53.556Z,13.60
2023-01-13T13:46:27.252Z,13.80
2023-01-13T13:48:55.223Z,13.57
2023-01-13T13:51:27.994Z,13.48
2023-01-13T13:53:55.750Z,12.85
2023-01-13T13:56:26.174Z,13.93
2023-01-13T13:58:56.294Z,13.95
2023-01-13T14:01:28.630Z,13.93
2023-01-13T14:04:11.390Z,13.35
2023-01-13T14:06:38.469Z,13.73
2023-01-13T14:09:16.730Z,13.88
2023-01-13T14:11:43.487Z,14.07
2023-01-13T14:14:14.293Z,13.98
2023-01-13T14:16:42.577Z,13.77
2023-01-13T14:19:26.533Z,14.40
2023-01-13T14:21:53.803Z,13.73
2023-01-13T14:24:20.892Z,14.75
2023-01-13T14:26:47.628Z,13.57
2023-01-13T14:29:19.315Z,14.15
2023-01-13T14:31:48.287Z,14.48
2023-01-13T14:34:32.095Z,14.32
2023-01-13T14:37:00.395Z,14.90
2023-01-13T14:39:35.545Z,15.70
2023-01-13T14:42:02.992Z,16.08
2023-01-13T14:44:32.202Z,16.98
2023-01-13T14:47:05.602Z,16.77
2023-01-13T14:49:38.559Z,17.63
2023-01-13T14:52:15.668Z,18.48
2023-01-13T14:57:33.103Z,18.97
2023-01-13T15:00:04.684Z,20.13
2023-01-13T15:02:40.908Z,18.38
2023-01-13T15:05:47.138Z,19.42
2023-01-13T15:08:34.798Z,19.80
2023-01-13T15:11:03.917Z,19.15
2023-01-13T15:13:39.654Z,18.50
2023-01-13T15:16:20.344Z,17.20
2023-01-13T15:18:49.004Z,19.30
2023-01-13T15:21:15.991Z,18.52
2023-01-13T15:23:43.621Z,17.88
2023-01-13T15:26:17.730Z,19.00
2023-01-13T15:28:44.682Z,18.65
2023-01-13T15:31:11.613Z,18.55
2023-01-13T15:33:38.571Z,18.58
2023-01-13T15:36:20.197Z,17.92
2023-01-13T15:38:47.204Z,18.30
2023-01-13T15:41:17.320Z,18.40
2023-01-13T15:43:52.559Z,18.42
2023-01-13T15:46:20.704Z,19.08
2023-01-13T15:48:49.055Z,18.17
2023-01-13T15:51:23.523Z,17.70
2023-01-13T15:53:50.890Z,18.35
2023-01-13T15:56:23.689Z,18.33
2023-01-13T15:58:50.983Z,17.77
2023-01-13T16:01:18.365Z,17.52
2023-01-13T16:03:45.729Z,16.83
2023-01-13T16:06:16.807Z,17.05
2023-01-13T16:08:45.505Z,15.88
2023-01-13T16:11:13.595Z,16.42
2023-01-13T16:13:40.945Z,16.55
2023-01-13T16:16:21.049Z,16.48
2023-01-13T16:18:48.819Z,17.90
2023-01-13T16:21:19.343Z,17.85
